sensor_id;sensor_type;location;lat;lon;timestamp;P1;durP1;ratioP1;P2;durP2;ratioP2
23228;SDS011;11783;50.350;6.576;2023-06-14T00:00:12;9.05;;;5.00;;
23228;SDS011;11783;50.350;6.576;2023-06-14T00:02:39;8.63;;;4.97;;
23228;SDS011;11783;50.350;6.576;2023-06-14T00:05:07;9.38;;;5.28;;
23228;SDS011;11783;50.350;6.576;2023-06-14T00:07:36;7.15;;;4.65;;
23228;SDS011;11783;50.350;6.576;2023-06-14T00:10:07;8.38;;;4.95;;
23228;SDS011;11783;50.350;6.576;2023-06-14T00:12:34;7.53;;;4.93;;
23228;SDS011;11783;50.350;6.576;2023-06-14T00:15:00;9.00;;;5.07;;
23228;SDS011;11783;50.350;6.576;2023-06-14T00:17:28;9.48;;;5.47;;
23228;SDS011;11783;50.350;6.576;2023-06-14T00:19:55;6.93;;;5.10;;
23228;SDS011;11783;50.350;6.576;2023-06-14T00:22:21;7.15;;;5.15;;
23228;SDS011;11783;50.350;6.576;2023-06-14T00:24:49;6.78;;;5.07;;
23228;SDS011;11783;50.350;6.576;2023-06-14T00:27:15;9.13;;;5.40;;
23228;SDS011;11783;50.350;6.576;2023-06-14T00:29:40;6.90;;;4.90;;
23228;SDS011;11783;50.350;6.576;2023-06-14T00:32:06;7.43;;;4.90;;
23228;SDS011;11783;50.350;6.576;2023-06-14T00:34:32;8.85;;;5.47;;
23228;SDS011;11783;50.350;6.576;2023-06-14T00:36:57;9.80;;;5.40;;
23228;SDS011;11783;50.350;6.576;2023-06-14T00:39:23;7.65;;;5.28;;
23228;SDS011;11783;50.350;6.576;2023-06-14T00:41:48;8.93;;;5.53;;
23228;SDS011;11783;50.350;6.576;2023-06-14T00:44:13;7.03;;;5.07;;
23228;SDS011;11783;50.350;6.576;2023-06-14T00:46:42;7.72;;;5.13;;
23228;SDS011;11783;50.350;6.576;2023-06-14T00:49:07;7.43;;;5.40;;
23228;SDS011;11783;50.350;6.576;2023-06-14T00:51:33;8.77;;;5.60;;
23228;SDS011;11783;50.350;6.576;2023-06-14T00:53:59;7.90;;;5.22;;
23228;SDS011;11783;50.350;6.576;2023-06-14T00:56:25;6.80;;;5.15;;
23228;SDS011;11783;50.350;6.576;2023-06-14T00:58:52;8.65;;;5.22;;
23228;SDS011;11783;50.350;6.576;2023-06-14T01:01:18;8.35;;;5.32;;
23228;SDS011;11783;50.350;6.576;2023-06-14T01:03:43;8.05;;;5.00;;
23228;SDS011;11783;50.350;6.576;2023-06-14T01:08:50;10.88;;;5.60;;
23228;SDS011;11783;50.350;6.576;2023-06-14T01:11:22;8.75;;;5.72;;
23228;SDS011;11783;50.350;6.576;2023-06-14T01:13:53;8.48;;;5.65;;
23228;SDS011;11783;50.350;6.576;2023-06-14T01:16:21;8.35;;;5.10;;
23228;SDS011;11783;50.350;6.576;2023-06-14T01:18:46;7.97;;;5.25;;
23228;SDS011;11783;50.350;6.576;2023-06-14T01:21:23;7.85;;;5.28;;
23228;SDS011;11783;50.350;6.576;2023-06-14T01:23:50;9.32;;;5.32;;
23228;SDS011;11783;50.350;6.576;2023-06-14T01:26:20;8.68;;;5.57;;
23228;SDS011;11783;50.350;6.576;2023-06-14T01:28:46;9.50;;;5.25;;
23228;SDS011;11783;50.350;6.576;2023-06-14T01:31:16;8.63;;;5.15;;
23228;SDS011;11783;50.350;6.576;2023-06-14T01:33:46;8.57;;;5.55;;
23228;SDS011;11783;50.350;6.576;2023-06-14T01:36:13;7.03;;;5.38;;
23228;SDS011;11783;50.350;6.576;2023-06-14T01:38:39;8.95;;;5.68;;
23228;SDS011;11783;50.350;6.576;2023-06-14T01:41:08;7.65;;;5.63;;
23228;SDS011;11783;50.350;6.576;2023-06-14T01:43:34;8.48;;;5.80;;
23228;SDS011;11783;50.350;6.576;2023-06-14T01:46:00;8.35;;;5.38;;
23228;SDS011;11783;50.350;6.576;2023-06-14T01:48:27;7.80;;;5.30;;
23228;SDS011;11783;50.350;6.576;2023-06-14T01:50:52;8.07;;;4.93;;
23228;SDS011;11783;50.350;6.576;2023-06-14T01:53:17;8.07;;;5.30;;
23228;SDS011;11783;50.350;6.576;2023-06-14T01:55:43;11.27;;;5.32;;
23228;SDS011;11783;50.350;6.576;2023-06-14T01:58:09;7.60;;;5.28;;
23228;SDS011;11783;50.350;6.576;2023-06-14T02:00:35;8.48;;;5.60;;
23228;SDS011;11783;50.350;6.576;2023-06-14T02:03:01;9.43;;;5.35;;
23228;SDS011;11783;50.350;6.576;2023-06-14T02:05:29;7.35;;;5.13;;
23228;SDS011;11783;50.350;6.576;2023-06-14T02:07:55;9.52;;;5.38;;
23228;SDS011;11783;50.350;6.576;2023-06-14T02:10:20;8.30;;;5.18;;
23228;SDS011;11783;50.350;6.576;2023-06-14T02:12:46;6.95;;;5.07;;
23228;SDS011;11783;50.350;6.576;2023-06-14T02:15:11;8.27;;;5.13;;
23228;SDS011;11783;50.350;6.576;2023-06-14T02:17:43;11.27;;;5.32;;
23228;SDS011;11783;50.350;6.576;2023-06-14T02:20:09;6.72;;;4.93;;
23228;SDS011;11783;50.350;6.576;2023-06-14T02:22:35;7.55;;;5.10;;
23228;SDS011;11783;50.350;6.576;2023-06-14T02:25:00;9.40;;;5.40;;
23228;SDS011;11783;50.350;6.576;2023-06-14T02:27:26;7.93;;;5.38;;
23228;SDS011;11783;50.350;6.576;2023-06-14T02:29:51;8.10;;;5.18;;
23228;SDS011;11783;50.350;6.576;2023-06-14T02:32:16;9.45;;;5.40;;
23228;SDS011;11783;50.350;6.576;2023-06-14T02:34:42;8.98;;;5.20;;
23228;SDS011;11783;50.350;6.576;2023-06-14T02:37:07;9.20;;;5.93;;
23228;SDS011;11783;50.350;6.576;2023-06-14T02:39:33;7.55;;;5.43;;
23228;SDS011;11783;50.350;6.576;2023-06-14T02:41:58;8.75;;;5.30;;
23228;SDS011;11783;50.350;6.576;2023-06-14T02:44:24;7.82;;;5.68;;
23228;SDS011;11783;50.350;6.576;2023-06-14T02:46:53;9.18;;;5.63;;
23228;SDS011;11783;50.350;6.576;2023-06-14T02:49:20;9.20;;;5.53;;
23228;SDS011;11783;50.350;6.576;2023-06-14T02:51:46;8.75;;;5.47;;
23228;SDS011;11783;50.350;6.576;2023-06-14T02:54:11;9.48;;;5.72;;
23228;SDS011;11783;50.350;6.576;2023-06-14T02:56:37;10.18;;;5.07;;
23228;SDS011;11783;50.350;6.576;2023-06-14T02:59:02;7.53;;;5.10;;
23228;SDS011;11783;50.350;6.576;2023-06-14T03:01:27;6.90;;;5.30;;
23228;SDS011;11783;50.350;6.576;2023-06-14T03:04:00;7.45;;;5.47;;
23228;SDS011;11783;50.350;6.576;2023-06-14T03:06:27;7.43;;;5.22;;
23228;SDS011;11783;50.350;6.576;2023-06-14T03:08:54;9.27;;;5.72;;
23228;SDS011;11783;50.350;6.576;2023-06-14T03:11:22;7.90;;;5.38;;
23228;SDS011;11783;50.350;6.576;2023-06-14T03:13:47;9.70;;;5.18;;
23228;SDS011;11783;50.350;6.576;2023-06-14T03:16:12;9.93;;;5.53;;
23228;SDS011;11783;50.350;6.576;2023-06-14T03:18:38;10.70;;;5.70;;
23228;SDS011;11783;50.350;6.576;2023-06-14T03:21:03;7.28;;;5.35;;
23228;SDS011;11783;50.350;6.576;2023-06-14T03:23:29;7.32;;;5.28;;
23228;SDS011;11783;50.350;6.576;2023-06-14T03:25:54;9.00;;;5.70;;
23228;SDS011;11783;50.350;6.576;2023-06-14T03:28:20;8.02;;;5.60;;
23228;SDS011;11783;50.350;6.576;2023-06-14T03:30:46;9.35;;;5.68;;
23228;SDS011;11783;50.350;6.576;2023-06-14T03:33:11;8.68;;;5.82;;
23228;SDS011;11783;50.350;6.576;2023-06-14T03:35:37;8.45;;;5.55;;
23228;SDS011;11783;50.350;6.576;2023-06-14T03:38:02;9.65;;;5.88;;
23228;SDS011;11783;50.350;6.576;2023-06-14T03:40:28;10.40;;;5.93;;
23228;SDS011;11783;50.350;6.576;2023-06-14T03:42:54;9.80;;;5.75;;
23228;SDS011;11783;50.350;6.576;2023-06-14T03:45:20;9.43;;;6.25;;
23228;SDS011;11783;50.350;6.576;2023-06-14T03:47:46;10.75;;;6.03;;
23228;SDS011;11783;50.350;6.576;2023-06-14T03:50:12;8.68;;;5.95;;
23228;SDS011;11783;50.350;6.576;2023-06-14T03:52:37;9.00;;;5.70;;
23228;SDS011;11783;50.350;6.576;2023-06-14T03:55:03;7.25;;;5.45;;
23228;SDS011;11783;50.350;6.576;2023-06-14T03:57:29;8.60;;;5.60;;
23228;SDS011;11783;50.350;6.576;2023-06-14T03:59:54;8.93;;;5.55;;
23228;SDS011;11783;50.350;6.576;2023-06-14T04:02:20;8.10;;;5.43;;
23228;SDS011;11783;50.350;6.576;2023-06-14T04:04:45;9.23;;;5.80;;
23228;SDS011;11783;50.350;6.576;2023-06-14T04:07:11;7.57;;;5.15;;
23228;SDS011;11783;50.350;6.576;2023-06-14T04:09:38;7.55;;;5.30;;
23228;SDS011;11783;50.350;6.576;2023-06-14T04:12:04;8.20;;;5.20;;
23228;SDS011;11783;50.350;6.576;2023-06-14T04:14:31;7.60;;;5.70;;
23228;SDS011;11783;50.350;6.576;2023-06-14T04:16:58;7.90;;;5.35;;
23228;SDS011;11783;50.350;6.576;2023-06-14T04:19:24;8.02;;;5.70;;
23228;SDS011;11783;50.350;6.576;2023-06-14T04:21:49;8.18;;;5.32;;
23228;SDS011;11783;50.350;6.576;2023-06-14T04:24:15;7.88;;;5.53;;
23228;SDS011;11783;50.350;6.576;2023-06-14T04:26:41;8.82;;;5.60;;
23228;SDS011;11783;50.350;6.576;2023-06-14T04:29:10;8.45;;;5.68;;
23228;SDS011;11783;50.350;6.576;2023-06-14T04:31:39;10.05;;;6.30;;
23228;SDS011;11783;50.350;6.576;2023-06-14T04:34:05;9.60;;;6.05;;
23228;SDS011;11783;50.350;6.576;2023-06-14T04:36:32;10.25;;;6.25;;
23228;SDS011;11783;50.350;6.576;2023-06-14T04:39:00;9.68;;;6.15;;
23228;SDS011;11783;50.350;6.576;2023-06-14T04:41:28;9.30;;;5.90;;
23228;SDS011;11783;50.350;6.576;2023-06-14T04:43:53;10.10;;;6.13;;
23228;SDS011;11783;50.350;6.576;2023-06-14T04:46:19;11.73;;;5.70;;
23228;SDS011;11783;50.350;6.576;2023-06-14T04:48:45;8.52;;;5.82;;
23228;SDS011;11783;50.350;6.576;2023-06-14T04:51:10;8.82;;;5.88;;
23228;SDS011;11783;50.350;6.576;2023-06-14T04:53:36;7.95;;;5.88;;
23228;SDS011;11783;50.350;6.576;2023-06-14T04:56:02;10.98;;;5.95;;
23228;SDS011;11783;50.350;6.576;2023-06-14T04:58:29;9.43;;;6.07;;
23228;SDS011;11783;50.350;6.576;2023-06-14T05:00:54;8.68;;;5.90;;
23228;SDS011;11783;50.350;6.576;2023-06-14T05:03:21;13.85;;;6.68;;
23228;SDS011;11783;50.350;6.576;2023-06-14T05:05:50;8.70;;;6.35;;
23228;SDS011;11783;50.350;6.576;2023-06-14T05:08:15;8.10;;;5.80;;
23228;SDS011;11783;50.350;6.576;2023-06-14T05:10:41;8.32;;;5.50;;
23228;SDS011;11783;50.350;6.576;2023-06-14T05:13:07;7.25;;;5.55;;
23228;SDS011;11783;50.350;6.576;2023-06-14T05:15:32;9.15;;;6.25;;
23228;SDS011;11783;50.350;6.576;2023-06-14T05:17:58;8.15;;;5.90;;
23228;SDS011;11783;50.350;6.576;2023-06-14T05:20:23;9.70;;;6.25;;
23228;SDS011;11783;50.350;6.576;2023-06-14T05:22:49;8.70;;;6.45;;
23228;SDS011;11783;50.350;6.576;2023-06-14T05:25:17;10.68;;;6.05;;
23228;SDS011;11783;50.350;6.576;2023-06-14T05:27:42;8.85;;;5.85;;
23228;SDS011;11783;50.350;6.576;2023-06-14T05:30:08;8.27;;;5.88;;
23228;SDS011;11783;50.350;6.576;2023-06-14T05:32:34;9.10;;;5.95;;
23228;SDS011;11783;50.350;6.576;2023-06-14T05:34:59;8.23;;;5.82;;
23228;SDS011;11783;50.350;6.576;2023-06-14T05:37:25;9.23;;;6.15;;
23228;SDS011;11783;50.350;6.576;2023-06-14T05:39:50;10.73;;;6.40;;
23228;SDS011;11783;50.350;6.576;2023-06-14T05:42:16;10.32;;;6.13;;
23228;SDS011;11783;50.350;6.576;2023-06-14T05:44:41;9.18;;;6.38;;
23228;SDS011;11783;50.350;6.576;2023-06-14T05:47:06;9.52;;;5.75;;
23228;SDS011;11783;50.350;6.576;2023-06-14T05:49:32;8.68;;;6.13;;
23228;SDS011;11783;50.350;6.576;2023-06-14T05:51:57;8.85;;;6.55;;
23228;SDS011;11783;50.350;6.576;2023-06-14T05:54:22;8.60;;;6.22;;
23228;SDS011;11783;50.350;6.576;2023-06-14T05:56:47;13.55;;;6.40;;
23228;SDS011;11783;50.350;6.576;2023-06-14T05:59:13;9.63;;;6.30;;
23228;SDS011;11783;50.350;6.576;2023-06-14T06:01:38;11.93;;;5.80;;
23228;SDS011;11783;50.350;6.576;2023-06-14T06:04:05;9.32;;;6.05;;
23228;SDS011;11783;50.350;6.576;2023-06-14T06:06:31;8.88;;;5.50;;
23228;SDS011;11783;50.350;6.576;2023-06-14T06:08:57;11.93;;;5.78;;
23228;SDS011;11783;50.350;6.576;2023-06-14T06:11:22;10.25;;;6.63;;
23228;SDS011;11783;50.350;6.576;2023-06-14T06:13:48;9.05;;;5.78;;
23228;SDS011;11783;50.350;6.576;2023-06-14T06:16:13;7.85;;;5.65;;
23228;SDS011;11783;50.350;6.576;2023-06-14T06:18:39;8.82;;;5.95;;
23228;SDS011;11783;50.350;6.576;2023-06-14T06:21:05;8.63;;;5.70;;
23228;SDS011;11783;50.350;6.576;2023-06-14T06:23:31;7.93;;;5.65;;
23228;SDS011;11783;50.350;6.576;2023-06-14T06:25:56;11.38;;;6.15;;
23228;SDS011;11783;50.350;6.576;2023-06-14T06:28:21;9.30;;;6.00;;
23228;SDS011;11783;50.350;6.576;2023-06-14T06:30:47;9.60;;;5.95;;
23228;SDS011;11783;50.350;6.576;2023-06-14T06:33:12;8.88;;;5.80;;
23228;SDS011;11783;50.350;6.576;2023-06-14T06:35:39;9.30;;;6.82;;
23228;SDS011;11783;50.350;6.576;2023-06-14T06:38:04;9.15;;;6.05;;
23228;SDS011;11783;50.350;6.576;2023-06-14T06:40:29;8.95;;;6.22;;
23228;SDS011;11783;50.350;6.576;2023-06-14T06:42:55;8.30;;;5.97;;
23228;SDS011;11783;50.350;6.576;2023-06-14T06:45:20;10.68;;;6.43;;
23228;SDS011;11783;50.350;6.576;2023-06-14T06:47:46;9.43;;;5.45;;
23228;SDS011;11783;50.350;6.576;2023-06-14T06:50:11;10.25;;;5.47;;
23228;SDS011;11783;50.350;6.576;2023-06-14T06:52:36;8.70;;;5.18;;
23228;SDS011;11783;50.350;6.576;2023-06-14T06:55:02;8.98;;;5.40;;
23228;SDS011;11783;50.350;6.576;2023-06-14T06:57:28;8.85;;;5.05;;
23228;SDS011;11783;50.350;6.576;2023-06-14T06:59:54;9.55;;;5.35;;
23228;SDS011;11783;50.350;6.576;2023-06-14T07:02:19;8.50;;;4.93;;
23228;SDS011;11783;50.350;6.576;2023-06-14T07:04:45;8.20;;;4.68;;
23228;SDS011;11783;50.350;6.576;2023-06-14T07:07:10;8.27;;;4.40;;
23228;SDS011;11783;50.350;6.576;2023-06-14T07:09:36;11.38;;;4.47;;
23228;SDS011;11783;50.350;6.576;2023-06-14T07:12:01;6.90;;;3.97;;
23228;SDS011;11783;50.350;6.576;2023-06-14T07:14:26;9.85;;;4.43;;
23228;SDS011;11783;50.350;6.576;2023-06-14T07:16:51;7.88;;;4.05;;
23228;SDS011;11783;50.350;6.576;2023-06-14T07:19:17;7.82;;;3.83;;
23228;SDS011;11783;50.350;6.576;2023-06-14T07:21:42;6.15;;;4.00;;
23228;SDS011;11783;50.350;6.576;2023-06-14T07:24:08;7.28;;;4.28;;
23228;SDS011;11783;50.350;6.576;2023-06-14T07:26:33;7.50;;;4.25;;
23228;SDS011;11783;50.350;6.576;2023-06-14T07:29:00;6.43;;;4.13;;
23228;SDS011;11783;50.350;6.576;2023-06-14T07:31:25;7.82;;;4.38;;
23228;SDS011;11783;50.350;6.576;2023-06-14T07:33:51;7.80;;;4.10;;
23228;SDS011;11783;50.350;6.576;2023-06-14T07:36:16;7.15;;;4.13;;
23228;SDS011;11783;50.350;6.576;2023-06-14T07:38:42;6.63;;;3.97;;
23228;SDS011;11783;50.350;6.576;2023-06-14T07:41:09;8.23;;;4.15;;
23228;SDS011;11783;50.350;6.576;2023-06-14T07:43:34;7.30;;;4.13;;
23228;SDS011;11783;50.350;6.576;2023-06-14T07:46:02;7.75;;;4.10;;
23228;SDS011;11783;50.350;6.576;2023-06-14T07:48:27;7.93;;;4.07;;
23228;SDS011;11783;50.350;6.576;2023-06-14T07:50:53;9.48;;;4.10;;
23228;SDS011;11783;50.350;6.576;2023-06-14T07:53:18;10.18;;;4.07;;
23228;SDS011;11783;50.350;6.576;2023-06-14T07:55:44;7.18;;;3.83;;
23228;SDS011;11783;50.350;6.576;2023-06-14T07:58:09;7.65;;;4.20;;
23228;SDS011;11783;50.350;6.576;2023-06-14T08:00:35;7.25;;;3.70;;
23228;SDS011;11783;50.350;6.576;2023-06-14T08:03:01;6.40;;;3.88;;
23228;SDS011;11783;50.350;6.576;2023-06-14T08:05:27;6.63;;;3.80;;
23228;SDS011;11783;50.350;6.576;2023-06-14T08:07:53;6.35;;;3.90;;
23228;SDS011;11783;50.350;6.576;2023-06-14T08:10:19;7.05;;;3.78;;
23228;SDS011;11783;50.350;6.576;2023-06-14T08:12:45;10.23;;;4.15;;
23228;SDS011;11783;50.350;6.576;2023-06-14T08:15:10;8.75;;;3.95;;
23228;SDS011;11783;50.350;6.576;2023-06-14T08:17:36;7.40;;;3.67;;
23228;SDS011;11783;50.350;6.576;2023-06-14T08:20:01;7.80;;;3.78;;
23228;SDS011;11783;50.350;6.576;2023-06-14T08:22:29;7.90;;;3.92;;
23228;SDS011;11783;50.350;6.576;2023-06-14T08:24:57;7.45;;;3.78;;
23228;SDS011;11783;50.350;6.576;2023-06-14T08:27:23;7.13;;;3.88;;
23228;SDS011;11783;50.350;6.576;2023-06-14T08:29:48;9.40;;;4.15;;
23228;SDS011;11783;50.350;6.576;2023-06-14T08:32:13;5.65;;;3.40;;
23228;SDS011;11783;50.350;6.576;2023-06-14T08:34:39;8.20;;;3.40;;
23228;SDS011;11783;50.350;6.576;2023-06-14T08:37:04;9.13;;;3.97;;
23228;SDS011;11783;50.350;6.576;2023-06-14T08:39:30;8.60;;;4.00;;
23228;SDS011;11783;50.350;6.576;2023-06-14T08:41:55;6.22;;;3.67;;
23228;SDS011;11783;50.350;6.576;2023-06-14T08:44:22;5.78;;;3.78;;
23228;SDS011;11783;50.350;6.576;2023-06-14T08:46:47;5.78;;;4.20;;
23228;SDS011;11783;50.350;6.576;2023-06-14T08:49:13;9.93;;;3.72;;
23228;SDS011;11783;50.350;6.576;2023-06-14T08:51:41;13.38;;;4.15;;
23228;SDS011;11783;50.350;6.576;2023-06-14T08:54:08;8.50;;;4.18;;
23228;SDS011;11783;50.350;6.576;2023-06-14T08:56:36;6.28;;;3.88;;
23228;SDS011;11783;50.350;6.576;2023-06-14T08:59:03;9.45;;;4.20;;
23228;SDS011;11783;50.350;6.576;2023-06-14T09:01:32;6.47;;;3.97;;
23228;SDS011;11783;50.350;6.576;2023-06-14T09:03:59;7.43;;;3.67;;
23228;SDS011;11783;50.350;6.576;2023-06-14T09:06:25;6.60;;;3.55;;
23228;SDS011;11783;50.350;6.576;2023-06-14T09:08:50;7.72;;;4.13;;
23228;SDS011;11783;50.350;6.576;2023-06-14T09:11:17;6.53;;;3.75;;
23228;SDS011;11783;50.350;6.576;2023-06-14T09:13:44;6.18;;;3.40;;
23228;SDS011;11783;50.350;6.576;2023-06-14T09:16:12;7.75;;;3.40;;
23228;SDS011;11783;50.350;6.576;2023-06-14T09:18:39;5.68;;;3.42;;
23228;SDS011;11783;50.350;6.576;2023-06-14T09:21:09;7.28;;;3.53;;
23228;SDS011;11783;50.350;6.576;2023-06-14T09:23:39;7.28;;;3.17;;
23228;SDS011;11783;50.350;6.576;2023-06-14T09:26:07;5.97;;;3.03;;
23228;SDS011;11783;50.350;6.576;2023-06-14T09:28:33;5.22;;;3.10;;
23228;SDS011;11783;50.350;6.576;2023-06-14T09:30:58;6.95;;;3.25;;
23228;SDS011;11783;50.350;6.576;2023-06-14T09:33:25;7.47;;;2.95;;
23228;SDS011;11783;50.350;6.576;2023-06-14T09:35:51;7.57;;;3.22;;
23228;SDS011;11783;50.350;6.576;2023-06-14T09:38:17;4.80;;;3.10;;
23228;SDS011;11783;50.350;6.576;2023-06-14T09:40:42;6.15;;;2.90;;
23228;SDS011;11783;50.350;6.576;2023-06-14T09:43:08;6.07;;;3.00;;
23228;SDS011;11783;50.350;6.576;2023-06-14T09:45:34;5.82;;;3.13;;
23228;SDS011;11783;50.350;6.576;2023-06-14T09:48:01;6.15;;;2.70;;
23228;SDS011;11783;50.350;6.576;2023-06-14T09:50:27;6.63;;;3.22;;
23228;SDS011;11783;50.350;6.576;2023-06-14T09:52:52;8.05;;;2.78;;
23228;SDS011;11783;50.350;6.576;2023-06-14T09:55:24;5.82;;;2.95;;
23228;SDS011;11783;50.350;6.576;2023-06-14T09:57:55;5.47;;;2.90;;
23228;SDS011;11783;50.350;6.576;2023-06-14T10:00:22;5.97;;;3.00;;
23228;SDS011;11783;50.350;6.576;2023-06-14T10:02:51;8.15;;;2.83;;
23228;SDS011;11783;50.350;6.576;2023-06-14T10:05:22;5.25;;;2.70;;
23228;SDS011;11783;50.350;6.576;2023-06-14T10:07:53;6.45;;;2.83;;
23228;SDS011;11783;50.350;6.576;2023-06-14T10:10:23;5.25;;;2.70;;
23228;SDS011;11783;50.350;6.576;2023-06-14T10:12:49;6.32;;;3.00;;
23228;SDS011;11783;50.350;6.576;2023-06-14T10:15:17;4.32;;;2.78;;
23228;SDS011;11783;50.350;6.576;2023-06-14T10:17:59;5.97;;;2.80;;
23228;SDS011;11783;50.350;6.576;2023-06-14T10:20:38;5.57;;;2.80;;
23228;SDS011;11783;50.350;6.576;2023-06-14T10:23:12;4.45;;;3.05;;
23228;SDS011;11783;50.350;6.576;2023-06-14T10:25:41;5.37;;;2.67;;
23228;SDS011;11783;50.350;6.576;2023-06-14T10:31:01;7.43;;;2.92;;
23228;SDS011;11783;50.350;6.576;2023-06-14T10:33:29;7.93;;;2.60;;
23228;SDS011;11783;50.350;6.576;2023-06-14T10:38:58;4.43;;;2.60;;
23228;SDS011;11783;50.350;6.576;2023-06-14T10:41:36;6.43;;;2.75;;
23228;SDS011;11783;50.350;6.576;2023-06-14T10:46:54;4.85;;;2.47;;
23228;SDS011;11783;50.350;6.576;2023-06-14T10:54:59;3.67;;;2.22;;
23228;SDS011;11783;50.350;6.576;2023-06-14T11:00:16;5.88;;;2.28;;
23228;SDS011;11783;50.350;6.576;2023-06-14T11:05:53;5.10;;;2.42;;
23228;SDS011;11783;50.350;6.576;2023-06-14T11:11:11;4.22;;;2.33;;
23228;SDS011;11783;50.350;6.576;2023-06-14T11:13:38;6.00;;;2.28;;
23228;SDS011;11783;50.350;6.576;2023-06-14T11:16:10;4.68;;;2.20;;
23228;SDS011;11783;50.350;6.576;2023-06-14T11:18:39;4.13;;;1.98;;
23228;SDS011;11783;50.350;6.576;2023-06-14T11:21:04;3.97;;;2.10;;
23228;SDS011;11783;50.350;6.576;2023-06-14T11:23:30;4.28;;;2.25;;
23228;SDS011;11783;50.350;6.576;2023-06-14T11:25:55;5.15;;;2.22;;
23228;SDS011;11783;50.350;6.576;2023-06-14T11:28:21;4.15;;;2.30;;
23228;SDS011;11783;50.350;6.576;2023-06-14T11:30:47;5.00;;;2.70;;
23228;SDS011;11783;50.350;6.576;2023-06-14T11:33:16;4.60;;;2.30;;
23228;SDS011;11783;50.350;6.576;2023-06-14T11:35:43;4.43;;;2.30;;
23228;SDS011;11783;50.350;6.576;2023-06-14T11:38:09;5.63;;;1.90;;
23228;SDS011;11783;50.350;6.576;2023-06-14T11:40:37;3.83;;;1.98;;
23228;SDS011;11783;50.350;6.576;2023-06-14T11:43:03;3.15;;;1.70;;
23228;SDS011;11783;50.350;6.576;2023-06-14T11:45:29;6.65;;;2.22;;
23228;SDS011;11783;50.350;6.576;2023-06-14T11:47:56;4.13;;;1.73;;
23228;SDS011;11783;50.350;6.576;2023-06-14T11:50:22;4.07;;;1.75;;
23228;SDS011;11783;50.350;6.576;2023-06-14T11:52:58;5.65;;;2.00;;
23228;SDS011;11783;50.350;6.576;2023-06-14T11:55:28;5.18;;;2.08;;
23228;SDS011;11783;50.350;6.576;2023-06-14T11:57:54;3.95;;;1.88;;
23228;SDS011;11783;50.350;6.576;2023-06-14T12:00:22;3.25;;;1.73;;
23228;SDS011;11783;50.350;6.576;2023-06-14T12:02:53;3.58;;;1.83;;
23228;SDS011;11783;50.350;6.576;2023-06-14T12:05:21;5.00;;;1.90;;
23228;SDS011;11783;50.350;6.576;2023-06-14T12:07:47;3.95;;;1.60;;
23228;SDS011;11783;50.350;6.576;2023-06-14T12:10:13;4.25;;;1.88;;
23228;SDS011;11783;50.350;6.576;2023-06-14T12:12:40;4.63;;;1.75;;
23228;SDS011;11783;50.350;6.576;2023-06-14T12:15:09;4.57;;;1.80;;
23228;SDS011;11783;50.350;6.576;2023-06-14T12:17:36;5.60;;;2.00;;
23228;SDS011;11783;50.350;6.576;2023-06-14T12:20:08;3.70;;;1.80;;
23228;SDS011;11783;50.350;6.576;2023-06-14T12:22:54;4.70;;;1.85;;
23228;SDS011;11783;50.350;6.576;2023-06-14T12:28:07;3.38;;;1.88;;
23228;SDS011;11783;50.350;6.576;2023-06-14T12:30:33;3.10;;;1.70;;
23228;SDS011;11783;50.350;6.576;2023-06-14T12:33:01;3.55;;;1.70;;
23228;SDS011;11783;50.350;6.576;2023-06-14T12:35:26;5.25;;;1.80;;
23228;SDS011;11783;50.350;6.576;2023-06-14T12:37:52;3.13;;;1.70;;
23228;SDS011;11783;50.350;6.576;2023-06-14T12:40:17;4.97;;;2.10;;
23228;SDS011;11783;50.350;6.576;2023-06-14T12:42:44;4.32;;;1.85;;
23228;SDS011;11783;50.350;6.576;2023-06-14T12:45:12;4.93;;;1.80;;
23228;SDS011;11783;50.350;6.576;2023-06-14T12:47:37;4.88;;;2.10;;
23228;SDS011;11783;50.350;6.576;2023-06-14T12:50:02;5.30;;;1.90;;
23228;SDS011;11783;50.350;6.576;2023-06-14T12:52:28;5.00;;;2.10;;
23228;SDS011;11783;50.350;6.576;2023-06-14T12:54:53;4.28;;;1.85;;
23228;SDS011;11783;50.350;6.576;2023-06-14T12:57:19;5.35;;;1.92;;
23228;SDS011;11783;50.350;6.576;2023-06-14T12:59:44;4.00;;;1.88;;
23228;SDS011;11783;50.350;6.576;2023-06-14T13:02:13;4.70;;;1.90;;
23228;SDS011;11783;50.350;6.576;2023-06-14T13:04:39;3.67;;;1.90;;
23228;SDS011;11783;50.350;6.576;2023-06-14T13:07:04;5.78;;;1.95;;
23228;SDS011;11783;50.350;6.576;2023-06-14T13:09:30;5.45;;;2.10;;
23228;SDS011;11783;50.350;6.576;2023-06-14T13:11:56;4.25;;;1.73;;
23228;SDS011;11783;50.350;6.576;2023-06-14T13:14:21;3.38;;;1.90;;
23228;SDS011;11783;50.350;6.576;2023-06-14T13:16:47;6.25;;;2.08;;
23228;SDS011;11783;50.350;6.576;2023-06-14T13:19:12;3.40;;;2.00;;
23228;SDS011;11783;50.350;6.576;2023-06-14T13:21:37;6.35;;;2.00;;
23228;SDS011;11783;50.350;6.576;2023-06-14T13:24:03;5.10;;;1.90;;
23228;SDS011;11783;50.350;6.576;2023-06-14T13:26:28;4.82;;;1.73;;
23228;SDS011;11783;50.350;6.576;2023-06-14T13:28:53;4.25;;;2.08;;
23228;SDS011;11783;50.350;6.576;2023-06-14T13:31:19;3.42;;;1.80;;
23228;SDS011;11783;50.350;6.576;2023-06-14T13:33:44;4.82;;;2.20;;
23228;SDS011;11783;50.350;6.576;2023-06-14T13:36:09;3.83;;;1.75;;
23228;SDS011;11783;50.350;6.576;2023-06-14T13:38:35;3.75;;;1.83;;
23228;SDS011;11783;50.350;6.576;2023-06-14T13:41:00;3.30;;;1.77;;
23228;SDS011;11783;50.350;6.576;2023-06-14T13:43:26;3.97;;;1.65;;
23228;SDS011;11783;50.350;6.576;2023-06-14T13:45:51;3.42;;;1.67;;
23228;SDS011;11783;50.350;6.576;2023-06-14T13:48:17;4.85;;;2.05;;
23228;SDS011;11783;50.350;6.576;2023-06-14T13:50:43;5.50;;;1.90;;
23228;SDS011;11783;50.350;6.576;2023-06-14T13:53:08;3.92;;;1.70;;
23228;SDS011;11783;50.350;6.576;2023-06-14T13:55:33;2.88;;;1.70;;
23228;SDS011;11783;50.350;6.576;2023-06-14T13:57:59;5.35;;;1.83;;
23228;SDS011;11783;50.350;6.576;2023-06-14T14:00:25;2.80;;;1.70;;
23228;SDS011;11783;50.350;6.576;2023-06-14T14:02:50;5.65;;;1.80;;
23228;SDS011;11783;50.350;6.576;2023-06-14T14:05:16;3.08;;;1.70;;
23228;SDS011;11783;50.350;6.576;2023-06-14T14:07:41;3.17;;;1.70;;
23228;SDS011;11783;50.350;6.576;2023-06-14T14:10:07;4.35;;;1.80;;
23228;SDS011;11783;50.350;6.576;2023-06-14T14:12:33;3.63;;;1.60;;
23228;SDS011;11783;50.350;6.576;2023-06-14T14:14:59;3.10;;;1.52;;
23228;SDS011;11783;50.350;6.576;2023-06-14T14:17:24;4.15;;;1.70;;
23228;SDS011;11783;50.350;6.576;2023-06-14T14:19:50;3.58;;;1.90;;
23228;SDS011;11783;50.350;6.576;2023-06-14T14:22:15;6.55;;;1.52;;
23228;SDS011;11783;50.350;6.576;2023-06-14T14:24:41;3.00;;;1.50;;
23228;SDS011;11783;50.350;6.576;2023-06-14T14:27:06;3.97;;;1.65;;
23228;SDS011;11783;50.350;6.576;2023-06-14T14:29:32;2.88;;;1.30;;
23228;SDS011;11783;50.350;6.576;2023-06-14T14:34:33;3.78;;;1.60;;
23228;SDS011;11783;50.350;6.576;2023-06-14T14:36:59;3.92;;;1.38;;
23228;SDS011;11783;50.350;6.576;2023-06-14T14:39:24;5.07;;;1.50;;
23228;SDS011;11783;50.350;6.576;2023-06-14T14:41:49;4.63;;;1.42;;
23228;SDS011;11783;50.350;6.576;2023-06-14T14:44:15;3.10;;;1.50;;
23228;SDS011;11783;50.350;6.576;2023-06-14T14:46:40;2.97;;;1.30;;
23228;SDS011;11783;50.350;6.576;2023-06-14T14:49:06;3.67;;;1.27;;
23228;SDS011;11783;50.350;6.576;2023-06-14T14:51:31;4.03;;;1.38;;
23228;SDS011;11783;50.350;6.576;2023-06-14T14:53:57;4.00;;;1.25;;
23228;SDS011;11783;50.350;6.576;2023-06-14T14:56:22;3.33;;;1.20;;
23228;SDS011;11783;50.350;6.576;2023-06-14T14:58:47;3.00;;;1.40;;
23228;SDS011;11783;50.350;6.576;2023-06-14T15:01:13;3.35;;;1.30;;
23228;SDS011;11783;50.350;6.576;2023-06-14T15:03:42;3.67;;;1.38;;
23228;SDS011;11783;50.350;6.576;2023-06-14T15:06:07;3.03;;;1.35;;
23228;SDS011;11783;50.350;6.576;2023-06-14T15:08:33;3.38;;;1.15;;
23228;SDS011;11783;50.350;6.576;2023-06-14T15:10:58;2.78;;;1.50;;